Delray Beach, FL (33448)

3:10 AM EDT on August 05, 2015 (GMT -0400)
SFWMD | | Change Station
CLOSE
Current Station
Personal Weather Station
Location: Delray Beach, FL
Elevation: 10 ft
Nearby Weather Stations

Elev 10 ft 26.50 °N, 80.22 °W | Updated 40 minutes ago

Clear
Clear
77 °F
Feels Like 78 °F
N
2
Wind Variable Wind from South
Gusts 2.0 mph

Today
High -- | Low -- °F
--% Chance of Precip.
Yesterday
High -- | Low -- °F
Precip. -- in
6:47 AM 8:05 PM
Waning Gibbous, 70% visible
Pressure 30.08 in
Visibility 10.0 miles
Clouds Clear
Heat Index 78 °F
Dew Point 76 °F
Humidity 97%
Rainfall in
Snow Depth Not available.
UV 0 out of 12
Pollen 3.40 out of 12
Air Quality Not available.
Flu Activity Not available.
METAR KPMP 050653Z AUTO 18003KT 10SM CLR 28/23 A3008 RMK AO2 SLP186 T02830228

More Conditions Fewer Conditions

Pressure 30.08 in
Visibility 10.0 miles
Clouds Clear
Heat Index 78 °F
Dew Point 76 °F
Humidity 97%
Rainfall in
Snow Depth Not available.
UV 0 out of 12
Pollen 3.40 out of 12
Air Quality Not available.
Flu Activity Not available.
METAR KPMP 050653Z AUTO 18003KT 10SM CLR 28/23 A3008 RMK AO2 SLP186 T02830228

More Conditions Fewer Conditions

10-Day Weather Forecast

×

Almanac

Astronomy

Aug. 05, 2015 Rise Set
Actual Time
Civil Twilight
Nautical Twilight
Astronomical Twilight
Moon
Length of Visible Light
Length of Day
Tomorrow will be .
, % of the Moon is Illuminated

Today's Extremes

State Highs State Lows

Community

WunderPhotos

Upload Photos

1,844,105 photos uploaded!

WunderBlogs® & News

Nearby

Air Quality

  Air Quality AQ Index Pollutant
Not available.

Snow Depth

Station Depth Elevation

Earthquake Activity

City Distance Mag. Time & Date
Minimum magnitude displayed is 2.5.

Coastal Water Temperatures

Place Temperature

Stations

Nearby Weather Stations

Station Location Temp. Windchill Dew Point Humidity Wind Precip. Elev Updated Type